Marie — WDF2361 — position and weather

sailwx.info

Track history (hours):
 
Tides and Currents Weather Stations Pressure Air Temp Water Temp Dewpoint Dewpoint Depression Visibility Wind Speed Wind Dir Waves Ship Positions

Marie

Owner: Enterprise Marine Services, LLC, San Antonio, TX. More information available from US FCC via Universal Licensing System and Coast Guard Vessel Documentation Center.

Last reported at 2017-Sep-24 04:02 UTC. Time now 2017-Sep-25 11:31 UTC.
Position N 29°33' W 090°55'.

Length 24 m; draft 2.9 m.

Type: Tug. MMSI: 367078350.

Date/timePositionNaut miles runAvg speedWind from/ knotsBaromVisibWave heightAir tempDewpointWater temp
2017-Sep-24 04:02N 29°33' W 090°55'0 5.8
2017-Sep-24 04:00N 29°33' W 090°55'4 5.3
2017-Sep-24 03:17N 29°32' W 090°50'2 6.2
2017-Sep-24 03:00N 29°32' W 090°48'3 5.4
2017-Sep-24 02:30N 29°33' W 090°45'2 4.2
2017-Sep-24 02:00N 29°34' W 090°43'1 2.3
2017-Sep-24 01:30N 29°33' W 090°42'1 1.2
2017-Sep-24 01:00N 29°34' W 090°43'0 0.2
2017-Sep-24 00:30N 29°34' W 090°43'0 0.0
2017-Sep-24 00:00N 29°34' W 090°43'0 0.2
2017-Sep-23 23:30N 29°34' W 090°43'1 2.2
2017-Sep-23 23:00N 29°35' W 090°43'2 4.7
2017-Sep-23 22:30N 29°36' W 090°41'3 6.1
2017-Sep-23 22:00N 29°35' W 090°38'3 6.4
2017-Sep-23 21:30N 29°34' W 090°34'  
Track history (hours):
 
Tides and Currents Weather Stations Pressure Air Temp Water Temp Dewpoint Dewpoint Depression Visibility Wind Speed Wind Dir Waves Ship Positions

Marie

Owner: Enterprise Marine Services, LLC, San Antonio, TX. More information available from US FCC via Universal Licensing System and Coast Guard Vessel Documentation Center.

Last reported at 2017-Sep-24 04:02 UTC. Time now 2017-Sep-25 11:31 UTC.
Position N 29°33' W 090°55'.

Length 24 m; draft 2.9 m.

Type: Tug. MMSI: 367078350.

Date/timePositionNaut miles runAvg speedWind from/ knotsBaromVisibWave heightAir tempDewpointWater temp
2017-Sep-24 04:02N 29°33' W 090°55'0 5.8
2017-Sep-24 04:00N 29°33' W 090°55'4 5.3
2017-Sep-24 03:17N 29°32' W 090°50'2 6.2
2017-Sep-24 03:00N 29°32' W 090°48'3 5.4
2017-Sep-24 02:30N 29°33' W 090°45'2 4.2
2017-Sep-24 02:00N 29°34' W 090°43'1 2.3
2017-Sep-24 01:30N 29°33' W 090°42'1 1.2
2017-Sep-24 01:00N 29°34' W 090°43'0 0.2
2017-Sep-24 00:30N 29°34' W 090°43'0 0.0
2017-Sep-24 00:00N 29°34' W 090°43'0 0.2
2017-Sep-23 23:30N 29°34' W 090°43'1 2.2
2017-Sep-23 23:00N 29°35' W 090°43'2 4.7
2017-Sep-23 22:30N 29°36' W 090°41'3 6.1
2017-Sep-23 22:00N 29°35' W 090°38'3 6.4
2017-Sep-23 21:30N 29°34' W 090°34'  

Dump ship's entire track history